Time;durP1;ratioP1;P1;durP2;ratioP2;P2;SDS_P1;SDS_P2;PMS_P1;PMS_P2;Temp;Humidity;BMP_temperature;BMP_pressure;BME280_temperature;BME280_humidity;BME280_pressure;Samples;Min_cycle;Max_cycle;Signal;HPM_P1;HPM_P2
2022/08/12 00:44:42;;;;;;;24.70;23.08;;;15.20;99.90;;;;;;5015691;28;21288;-71
2022/08/12 00:47:11;;;;;;;24.52;22.88;;;15.10;99.90;;;;;;5003005;28;20041;-71
2022/08/12 00:49:52;;;;;;;25.27;23.35;;;15.00;99.90;;;;;;5027016;28;20041;-71
2022/08/12 00:52:19;;;;;;;25.08;23.38;;;15.00;99.90;;;;;;5017924;28;20056;-71
2022/08/12 00:54:52;;;;;;;26.30;24.40;;;15.00;99.90;;;;;;5018443;28;20119;-71
2022/08/12 00:57:21;;;;;;;25.73;23.75;;;14.90;99.90;;;;;;5016295;28;20052;-70
2022/08/12 00:59:49;;;;;;;24.80;23.20;;;14.90;99.90;;;;;;5025318;28;20044;-71
2022/08/12 01:02:31;;;;;;;25.05;23.17;;;14.90;99.90;;;;;;5002480;28;20061;-70
2022/08/12 01:13:30;;;;;;;23.77;22.30;;;15.00;99.90;;;;;;5016876;28;20048;-70
2022/08/12 01:15:59;;;;;;;24.50;22.90;;;14.80;99.90;;;;;;5017809;28;20489;-70
2022/08/12 01:18:29;;;;;;;24.33;22.50;;;14.90;99.90;;;;;;4980274;28;20046;-71
2022/08/12 01:21:12;;;;;;;24.02;22.52;;;14.80;99.90;;;;;;4983916;28;20052;-71
2022/08/12 01:23:52;;;;;;;24.38;22.58;;;14.90;99.90;;;;;;5009278;28;20044;-71
2022/08/12 01:26:23;;;;;;;23.38;21.83;;;14.90;99.90;;;;;;4996418;28;20045;-70
2022/08/12 01:28:55;;;;;;;23.65;22.23;;;14.90;99.90;;;;;;4998832;28;20430;-71
2022/08/12 01:31:26;;;;;;;24.23;22.63;;;14.80;99.90;;;;;;4995775;28;20461;-71
2022/08/12 01:34:02;;;;;;;24.13;22.48;;;14.70;99.90;;;;;;4997655;28;20147;-70
2022/08/12 01:36:49;;;;;;;24.50;22.65;;;14.70;99.90;;;;;;4983918;28;20580;-71
2022/08/12 01:39:16;;;;;;;24.83;23.20;;;14.70;99.90;;;;;;4987823;28;20038;-71
2022/08/12 01:41:49;;;;;;;24.40;22.60;;;14.70;99.90;;;;;;4996163;28;20523;-71
2022/08/12 01:44:22;;;;;;;23.95;22.23;;;14.70;99.90;;;;;;5010238;28;20076;-70
2022/08/12 01:47:11;;;;;;;24.20;22.40;;;14.60;99.90;;;;;;5001402;28;20254;-72
2022/08/12 01:49:56;;;;;;;;;;;14.70;99.90;;;;;;5015405;28;21428;-72
2022/08/12 01:52:34;;;;;;;24.73;22.90;;;14.50;99.90;;;;;;4998887;28;19982;-72
2022/08/12 01:55:01;;;;;;;24.15;22.45;;;14.50;99.90;;;;;;5021139;28;20562;-72
2022/08/12 01:57:43;;;;;;;24.33;22.67;;;14.40;99.90;;;;;;5016168;28;20098;-72
2022/08/12 02:00:38;;;;;;;25.48;23.33;;;14.40;99.90;;;;;;5012816;28;20130;-72
2022/08/12 02:13:13;;;;;;;;;;;14.40;99.90;;;;;;4962337;28;20687;-70
2022/08/12 02:15:55;;;;;;;25.40;23.73;;;14.30;99.90;;;;;;4953345;28;19929;-70
2022/08/12 02:18:39;;;;;;;25.25;23.30;;;14.30;99.90;;;;;;5000450;28;20402;-70
2022/08/12 02:21:25;;;;;;;26.03;24.03;;;14.30;99.90;;;;;;4990972;28;20433;-72
2022/08/12 02:23:58;;;;;;;26.65;24.48;;;14.30;99.90;;;;;;4986955;28;20803;-72
2022/08/12 02:26:29;;;;;;;26.88;24.88;;;14.20;99.90;;;;;;4978965;28;20038;-71
2022/08/12 02:28:56;;;;;;;25.17;23.45;;;14.30;99.90;;;;;;4988225;28;20108;-72
2022/08/12 02:31:28;;;;;;;26.15;24.05;;;14.30;99.90;;;;;;4983777;28;20596;-72
2022/08/12 02:33:57;;;;;;;26.45;24.30;;;14.30;99.90;;;;;;4989125;28;20235;-72
2022/08/12 02:36:26;;;;;;;26.17;24.00;;;14.30;99.90;;;;;;5005493;28;20041;-72
2022/08/12 02:38:58;;;;;;;25.25;23.45;;;14.40;99.90;;;;;;5025055;22;20163;-73
2022/08/12 02:41:28;;;;;;;25.92;24.02;;;14.40;99.90;;;;;;4998387;28;20041;-72
2022/08/12 02:44:03;;;;;;;25.58;23.67;;;14.40;99.90;;;;;;5003807;28;20095;-72
2022/08/12 02:46:33;;;;;;;25.75;23.90;;;14.50;99.90;;;;;;4995713;28;20099;-72
2022/08/12 02:49:03;;;;;;;25.50;23.65;;;14.40;99.90;;;;;;4995200;28;20073;-72
2022/08/12 02:51:33;;;;;;;26.45;24.52;;;14.40;99.90;;;;;;4988263;28;20038;-72
2022/08/12 02:54:04;;;;;;;26.20;24.38;;;14.40;99.90;;;;;;4988948;28;20072;-72
2022/08/12 02:56:36;;;;;;;27.20;25.17;;;14.40;99.90;;;;;;4989856;28;20528;-73
2022/08/12 02:59:05;;;;;;;26.13;24.33;;;14.30;99.90;;;;;;5003652;28;20045;-72
2022/08/12 03:01:36;;;;;;;25.98;24.15;;;14.30;99.90;;;;;;4977759;28;20510;-72
2022/08/12 03:04:39;;;;;;;27.33;25.10;;;14.30;99.90;;;;;;5000541;28;20042;-73
2022/08/12 03:07:27;;;;;;;26.02;24.15;;;14.30;99.90;;;;;;4994834;28;20038;-72
2022/08/12 03:10:17;;;;;;;27.00;24.95;;;14.30;99.90;;;;;;4986400;28;20052;-73
2022/08/12 03:13:05;;;;;;;26.20;24.40;;;14.30;99.90;;;;;;4990652;28;20053;-72
2022/08/12 03:15:34;;;;;;;27.20;25.10;;;14.30;99.90;;;;;;4991891;28;20045;-73
2022/08/12 03:18:13;;;;;;;26.10;24.33;;;14.30;99.90;;;;;;4988506;28;20053;-72
2022/08/12 03:20:55;;;;;;;26.02;24.13;;;14.30;99.90;;;;;;4997119;28;20724;-73
2022/08/12 03:23:23;;;;;;;27.25;25.05;;;14.30;99.90;;;;;;4983389;28;20053;-72
2022/08/12 03:26:00;;;;;;;26.90;24.88;;;14.30;99.90;;;;;;4990879;28;20103;-72
2022/08/12 03:31:23;;;;;;;27.13;24.92;;;14.30;99.90;;;;;;4998967;28;20115;-73
2022/08/12 03:33:51;;;;;;;27.42;25.25;;;14.30;99.90;;;;;;4984997;28;20052;-72
2022/08/12 03:36:33;;;;;;;27.02;24.73;;;14.30;99.90;;;;;;4980105;28;20064;-72
2022/08/12 03:39:20;;;;;;;27.42;25.40;;;14.30;99.90;;;;;;5014024;28;20329;-72
2022/08/12 03:42:26;;;;;;;27.63;25.50;;;14.20;99.90;;;;;;5004916;28;20349;-73
2022/08/12 04:02:15;;;;;;;28.23;25.55;;;13.90;99.90;;;;;;5006461;28;20449;-72
2022/08/12 04:04:44;;;;;;;27.20;25.15;;;13.90;99.90;;;;;;4986567;28;20146;-72
2022/08/12 04:07:12;;;;;;;28.77;26.75;;;14.00;99.90;;;;;;5007698;28;20706;-72
2022/08/12 04:09:41;;;;;;;28.38;26.00;;;14.10;99.90;;;;;;5004153;28;20115;-72
2022/08/12 04:15:00;;;;;;;28.13;25.92;;;14.10;99.90;;;;;;4987617;28;20155;-72
2022/08/12 04:17:27;;;;;;;31.88;29.35;;;14.10;99.90;;;;;;5003656;28;20041;-71
2022/08/12 04:19:56;;;;;;;26.77;24.75;;;14.10;99.90;;;;;;5020843;28;20048;-72
2022/08/12 04:22:27;;;;;;;28.42;26.48;;;14.00;99.90;;;;;;4984083;28;20766;-71
2022/08/12 04:24:57;;;;;;;27.60;25.38;;;14.00;99.90;;;;;;4999812;28;20045;-72
2022/08/12 04:27:24;;;;;;;28.08;25.98;;;13.90;99.90;;;;;;4994233;28;20045;-72
2022/08/12 04:29:52;;;;;;;30.00;27.25;;;13.90;99.90;;;;;;5005057;28;20052;-71
2022/08/12 04:32:38;;;;;;;30.48;28.27;;;13.90;99.90;;;;;;5002054;28;20041;-72
2022/08/12 04:35:11;;;;;;;31.52;29.13;;;13.80;99.90;;;;;;5014905;28;20168;-72
2022/08/12 04:37:37;;;;;;;30.42;28.15;;;13.90;99.90;;;;;;5010385;28;20579;-71
2022/08/12 04:40:26;;;;;;;30.08;28.02;;;13.90;99.90;;;;;;5004993;28;20037;-72
2022/08/12 04:42:54;;;;;;;30.42;28.33;;;13.80;99.90;;;;;;4998765;28;20080;-72
2022/08/12 04:45:21;;;;;;;30.50;28.42;;;13.90;99.90;;;;;;4999972;28;20128;-71
2022/08/12 04:47:48;;;;;;;30.63;28.30;;;13.90;99.90;;;;;;4984896;28;21177;-72
2022/08/12 04:50:17;;;;;;;30.17;28.08;;;13.80;99.90;;;;;;5007216;28;20053;-72
2022/08/12 04:53:03;;;;;;;30.83;28.17;;;13.80;99.90;;;;;;5014983;28;20155;-71
2022/08/12 04:55:30;;;;;;;29.90;27.70;;;13.80;99.90;;;;;;4991892;28;20076;-72
2022/08/12 04:57:59;;;;;;;29.08;27.17;;;13.80;99.90;;;;;;5014529;28;20049;-71
2022/08/12 05:00:26;;;;;;;30.02;27.73;;;13.90;99.90;;;;;;5006802;28;20045;-72
2022/08/12 05:02:53;;;;;;;28.45;26.17;;;13.90;99.90;;;;;;4988698;28;20029;-72
2022/08/12 05:05:22;;;;;;;27.55;25.75;;;14.10;99.90;;;;;;5013838;28;20044;-72
2022/08/12 05:07:50;;;;;;;29.63;27.08;;;14.20;99.90;;;;;;5007539;28;21493;-72
2022/08/12 05:10:21;;;;;;;27.50;25.70;;;14.20;99.90;;;;;;5012699;28;20038;-72
2022/08/12 05:13:06;;;;;;;28.88;26.65;;;14.20;99.90;;;;;;5011890;28;20224;-72
2022/08/12 05:15:33;;;;;;;28.17;26.30;;;14.30;99.90;;;;;;5005193;28;20061;-72
2022/08/12 05:18:02;;;;;;;28.15;26.23;;;14.30;99.90;;;;;;5011582;28;20265;-72
2022/08/12 05:20:47;;;;;;;29.08;27.08;;;14.40;99.90;;;;;;5000259;28;20045;-72
2022/08/12 05:23:19;;;;;;;28.75;26.95;;;14.50;99.90;;;;;;5006386;28;20048;-71
2022/08/12 05:25:50;;;;;;;28.77;26.77;;;14.70;99.90;;;;;;5016722;28;20064;-72
2022/08/12 05:28:17;;;;;;;29.10;26.98;;;14.80;99.90;;;;;;5002172;28;20163;-71
2022/08/12 05:30:45;;;;;;;29.67;27.52;;;15.00;99.90;;;;;;4998305;28;20083;-72
2022/08/12 05:33:14;;;;;;;28.45;26.65;;;15.20;99.90;;;;;;5018236;28;20049;-72
2022/08/12 05:35:42;;;;;;;28.63;26.45;;;15.10;99.90;;;;;;4982337;28;21366;-71
2022/08/12 05:40:59;;;;;;;27.77;25.88;;;15.50;99.90;;;;;;5015435;28;20053;-72
2022/08/12 05:43:26;;;;;;;29.20;26.85;;;15.50;99.90;;;;;;5001336;28;20048;-71
2022/08/12 05:45:53;;;;;;;29.23;27.08;;;15.80;99.90;;;;;;5018996;28;20493;-72
2022/08/12 05:48:21;;;;;;;29.33;26.83;;;15.90;99.90;;;;;;5013758;28;20045;-71
2022/08/12 05:50:47;;;;;;;29.13;27.13;;;16.30;99.90;;;;;;5017450;28;20734;-71
2022/08/12 05:53:14;;;;;;;29.05;26.75;;;16.50;99.90;;;;;;5023260;28;20060;-71
2022/08/12 05:55:41;;;;;;;28.92;26.77;;;16.60;99.90;;;;;;5014284;28;21080;-71
2022/08/12 05:58:08;;;;;;;26.60;24.90;;;16.80;99.90;;;;;;4993675;28;20045;-72
2022/08/12 06:00:35;;;;;;;27.70;25.48;;;17.00;99.90;;;;;;5015612;28;20095;-72
2022/08/12 06:03:04;;;;;;;25.98;24.15;;;17.40;99.90;;;;;;5018942;28;20502;-72
2022/08/12 06:05:34;;;;;;;26.23;24.42;;;18.00;99.90;;;;;;4997804;28;20091;-71
2022/08/12 06:08:23;;;;;;;26.15;24.35;;;18.50;99.90;;;;;;4995525;28;20070;-72
2022/08/12 06:10:50;;;;;;;25.67;24.02;;;18.90;99.90;;;;;;5015284;28;20056;-72
2022/08/12 06:13:18;;;;;;;26.65;24.52;;;19.30;99.90;;;;;;5018341;28;20068;-72
2022/08/12 06:16:06;;;;;;;26.17;24.45;;;19.60;99.90;;;;;;5010543;28;20049;-72
2022/08/12 06:18:34;;;;;;;27.05;24.95;;;20.00;99.90;;;;;;4990193;28;20531;-72
2022/08/12 06:21:00;;;;;;;27.10;25.20;;;20.30;99.90;;;;;;5015437;28;20394;-71
2022/08/12 06:23:28;;;;;;;27.05;25.35;;;20.50;99.90;;;;;;4999649;28;20068;-72
2022/08/12 06:25:56;;;;;;;26.73;24.95;;;20.70;99.90;;;;;;4989911;28;20049;-72
2022/08/12 06:28:24;;;;;;;27.23;25.20;;;20.90;99.90;;;;;;4998962;28;20050;-72
2022/08/12 06:30:52;;;;;;;27.08;25.33;;;21.10;99.90;;;;;;4984424;28;21221;-72
2022/08/12 06:33:43;;;;;;;27.77;25.77;;;21.40;99.90;;;;;;4988052;28;20069;-71
2022/08/12 06:36:23;;;;;;;28.25;26.15;;;21.50;99.90;;;;;;4998535;28;20037;-72
2022/08/12 06:38:56;;;;;;;27.55;25.55;;;21.70;99.90;;;;;;5002444;28;20057;-72
2022/08/12 06:44:29;;;;;;;27.80;25.90;;;22.20;99.90;;;;;;4981169;28;20100;-72
2022/08/12 06:46:56;;;;;;;28.55;26.70;;;22.50;99.90;;;;;;5002558;28;20302;-72
2022/08/12 06:49:24;;;;;;;30.42;28.48;;;22.80;99.90;;;;;;4982290;28;20501;-72
2022/08/12 06:51:54;;;;;;;31.00;29.10;;;23.00;99.90;;;;;;4986939;28;20053;-73
2022/08/12 06:54:24;;;;;;;30.38;28.30;;;23.10;99.90;;;;;;4973343;28;20137;-73
2022/08/12 06:57:00;;;;;;;;;;;23.40;99.90;;;;;;4990748;28;20042;-73
2022/08/12 06:59:47;;;;;;;32.40;30.35;;;23.50;99.90;;;;;;4982663;28;19922;-73
2022/08/12 07:02:14;;;;;;;31.50;29.52;;;23.80;99.90;;;;;;4990272;28;20037;-73
2022/08/12 07:04:40;;;;;;;30.50;28.45;;;24.20;99.90;;;;;;4989771;28;20442;-73
2022/08/12 07:07:08;;;;;;;32.35;30.13;;;24.40;99.90;;;;;;4991019;28;20505;-73
2022/08/12 07:09:37;;;;;;;31.27;29.30;;;24.20;99.90;;;;;;4988207;28;20128;-74
2022/08/12 07:12:26;;;;;;;31.55;29.55;;;24.30;99.90;;;;;;4995354;28;20330;-74
2022/08/12 07:14:55;;;;;;;31.48;29.67;;;24.70;99.90;;;;;;4998627;28;20146;-75
2022/08/12 07:17:22;;;;;;;31.35;29.17;;;25.00;99.90;;;;;;4995026;28;20046;-70
2022/08/12 07:19:50;;;;;;;32.00;30.08;;;25.40;99.90;;;;;;5005057;28;21242;-70
2022/08/12 07:22:18;;;;;;;34.00;31.45;;;26.00;99.90;;;;;;4990008;28;20049;-70
2022/08/12 07:25:29;;;;;;;33.65;31.52;;;26.40;99.90;;;;;;4993351;28;20763;-70
2022/08/12 07:27:39;;;;;;;32.83;30.70;;;26.80;99.90;;;;;;4989431;28;20128;-70
2022/08/12 07:30:08;;;;;;;33.00;31.00;;;26.90;98.90;;;;;;4995288;28;20041;-70
2022/08/12 07:32:35;;;;;;;33.70;31.60;;;26.90;98.70;;;;;;4985562;28;20636;-69
2022/08/12 07:35:03;;;;;;;33.88;31.92;;;26.90;98.30;;;;;;4985250;28;20250;-70
2022/08/12 07:37:33;;;;;;;34.22;32.33;;;27.10;98.00;;;;;;4985885;28;20573;-70
2022/08/12 07:40:00;;;;;;;34.33;31.92;;;27.00;98.00;;;;;;5007742;28;20102;-70
2022/08/12 07:42:28;;;;;;;33.70;31.45;;;27.20;98.20;;;;;;4990823;28;20144;-70
2022/08/12 07:44:55;;;;;;;34.60;32.33;;;27.30;97.50;;;;;;4989589;28;20049;-70
2022/08/12 07:47:23;;;;;;;34.13;31.83;;;27.60;97.40;;;;;;4994106;28;20045;-70
2022/08/12 07:49:50;;;;;;;33.88;31.77;;;27.10;97.20;;;;;;4996188;28;20057;-71
2022/08/12 07:52:41;;;;;;;33.17;31.30;;;26.50;97.50;;;;;;4988175;28;20175;-73
2022/08/12 07:55:10;;;;;;;34.35;32.35;;;26.50;97.70;;;;;;4999080;28;20037;-72
2022/08/12 07:57:52;;;;;;;35.10;32.88;;;26.40;97.50;;;;;;4984157;28;20494;-73
2022/08/12 08:00:19;;;;;;;33.45;31.58;;;26.80;97.30;;;;;;4985993;28;20042;-72
2022/08/12 08:02:48;;;;;;;33.58;31.35;;;26.90;96.80;;;;;;4993539;28;20124;-73
2022/08/12 08:05:16;;;;;;;32.45;30.25;;;26.70;96.70;;;;;;4997738;28;20398;-73
2022/08/12 08:07:43;;;;;;;34.45;31.55;;;27.00;96.20;;;;;;4990573;28;20044;-73
2022/08/12 08:10:10;;;;;;;32.80;30.67;;;27.30;96.20;;;;;;4994496;28;20041;-72
2022/08/12 08:12:52;;;;;;;32.88;30.55;;;27.40;96.20;;;;;;4994725;28;20979;-72
2022/08/12 08:15:29;;;;;;;34.17;31.83;;;27.30;95.40;;;;;;4986145;28;20041;-72
2022/08/12 08:18:19;;;;;;;31.90;29.98;;;27.40;95.50;;;;;;4990704;28;20041;-73
2022/08/12 08:20:55;;;;;;;32.80;30.60;;;27.20;95.00;;;;;;4986349;28;20054;-70
2022/08/12 08:23:21;;;;;;;32.22;30.20;;;27.20;94.80;;;;;;4989374;28;20041;-70
2022/08/12 08:26:00;;;;;;;33.45;31.23;;;27.10;94.40;;;;;;4990189;28;20195;-70
2022/08/12 08:28:28;;;;;;;35.22;32.55;;;26.90;94.10;;;;;;4988498;28;20144;-72
2022/08/12 08:30:54;;;;;;;32.83;30.83;;;26.80;94.40;;;;;;4987215;28;20494;-73
2022/08/12 08:33:22;;;;;;;32.85;30.85;;;27.10;95.00;;;;;;4989454;28;20045;-73
2022/08/12 08:36:09;;;;;;;33.72;31.52;;;27.60;94.20;;;;;;4992463;28;20042;-72
2022/08/12 08:38:50;;;;;;;33.67;31.52;;;28.00;92.90;;;;;;5055801;23;20505;-76
2022/08/12 08:44:28;;;;;;;34.90;32.77;;;27.70;92.90;;;;;;5063391;28;20569;-77
2022/08/12 08:46:55;;;;;;;34.17;31.90;;;27.70;92.00;;;;;;5065644;28;20278;-78
2022/08/12 08:49:22;;;;;;;33.70;31.70;;;27.80;92.00;;;;;;5067028;28;20056;-77
2022/08/12 08:51:49;;;;;;;33.83;31.73;;;28.00;92.80;;;;;;5062885;28;20116;-78
2022/08/12 08:54:16;;;;;;;34.38;32.28;;;28.00;92.00;;;;;;5072440;28;20055;-77
2022/08/12 08:56:45;;;;;;;34.65;32.53;;;28.40;92.50;;;;;;5047179;28;20218;-76
2022/08/12 08:59:12;;;;;;;34.47;32.45;;;28.30;90.90;;;;;;5069905;28;20138;-77
2022/08/12 09:01:40;;;;;;;35.15;32.95;;;28.00;90.60;;;;;;5081046;22;20043;-70
2022/08/12 09:04:11;;;;;;;35.75;33.42;;;28.00;91.80;;;;;;5066507;28;20419;-71
2022/08/12 09:06:59;;;;;;;35.83;33.60;;;28.00;90.50;;;;;;5070962;28;20246;-71
2022/08/12 09:09:43;;;;;;;35.95;33.63;;;27.30;91.30;;;;;;5050359;28;20068;-70
2022/08/12 09:15:22;;;;;;;35.45;33.15;;;27.50;91.60;;;;;;5036972;28;20068;-71
2022/08/12 09:18:06;;;;;;;34.65;32.25;;;27.70;91.90;;;;;;5044740;28;20103;-71
2022/08/12 09:20:53;;;;;;;35.58;33.38;;;27.70;91.60;;;;;;5036571;28;20068;-71
2022/08/12 09:23:20;;;;;;;36.88;34.78;;;28.20;92.00;;;;;;5035168;28;20057;-71
2022/08/12 09:26:08;;;;;;;38.17;35.58;;;27.30;92.10;;;;;;5029294;28;20123;-70
2022/08/12 09:28:35;;;;;;;36.90;34.63;;;27.30;92.10;;;;;;5030631;28;20046;-71
2022/08/12 09:31:04;;;;;;;36.78;34.45;;;27.20;92.30;;;;;;5045102;28;20041;-70
2022/08/12 09:33:51;;;;;;;36.58;34.20;;;27.50;92.00;;;;;;5034546;28;20053;-71
2022/08/12 09:36:38;;;;;;;36.25;33.92;;;27.50;91.80;;;;;;5033631;28;20148;-71
2022/08/12 09:39:25;;;;;;;36.53;34.13;;;27.70;91.80;;;;;;5030732;28;20040;-71
2022/08/12 09:45:21;;;;;;;37.03;34.38;;;27.30;91.50;;;;;;5019526;28;20048;-71
2022/08/12 09:48:08;;;;;;;36.55;34.15;;;28.30;91.10;;;;;;5051051;28;20059;-71
2022/08/12 09:50:35;;;;;;;35.42;32.97;;;28.00;90.40;;;;;;5052372;28;20041;-71
2022/08/12 09:53:14;;;;;;;35.65;33.55;;;27.70;91.00;;;;;;5050490;28;20041;-71
2022/08/12 09:55:46;;;;;;;35.08;32.90;;;27.70;90.80;;;;;;5046750;28;20139;-71
2022/08/12 09:58:33;;;;;;;37.15;35.00;;;27.70;91.90;;;;;;5025592;28;20063;-70
2022/08/12 10:01:22;;;;;;;32.97;30.88;;;27.40;89.70;;;;;;5028125;28;20037;-70
2022/08/12 10:03:50;;;;;;;36.35;34.25;;;27.30;90.00;;;;;;5047140;28;20478;-71
2022/08/12 10:06:30;;;;;;;36.50;34.17;;;27.80;91.00;;;;;;5037087;28;20037;-71
2022/08/12 10:09:06;;;;;;;37.38;35.10;;;28.20;88.20;;;;;;5015756;28;20034;-71
2022/08/12 10:14:38;;;;;;;37.03;34.65;;;28.30;90.00;;;;;;5044959;28;20049;-71
2022/08/12 10:17:05;;;;;;;35.00;32.83;;;28.90;87.40;;;;;;5043192;28;20057;-71
2022/08/12 10:19:36;;;;;;;37.05;34.95;;;29.40;87.00;;;;;;5046046;28;20124;-70
2022/08/12 10:22:04;;;;;;;38.72;36.22;;;28.30;87.20;;;;;;5046088;28;20048;-70
2022/08/12 10:29:35;;;;;;;36.83;34.67;;;27.60;89.80;;;;;;5046471;28;20044;-70
2022/08/12 10:30:32;;;;;;;37.88;35.45;;;27.20;90.30;;;;;;5042961;28;20047;-70
2022/08/12 10:33:08;;;;;;;36.90;34.70;;;27.40;91.20;;;;;;5048147;28;20544;-71
2022/08/12 10:35:48;;;;;;;37.13;34.97;;;27.40;90.40;;;;;;5040133;28;20052;-70
2022/08/12 10:38:19;;;;;;;37.42;34.80;;;27.40;89.70;;;;;;5050659;28;20068;-69
2022/08/12 10:44:12;;;;;;;38.90;36.00;;;27.80;89.20;;;;;;5045159;28;20125;-69
2022/08/12 10:46:47;;;;;;;37.25;35.00;;;27.70;90.50;;;;;;5036267;28;20111;-71
2022/08/12 10:49:16;;;;;;;36.35;33.95;;;28.00;89.00;;;;;;5040444;28;20073;-71
2022/08/12 10:52:05;;;;;;;36.90;34.47;;;27.90;89.10;;;;;;5036686;28;20096;-69
2022/08/12 10:54:54;;;;;;;35.10;33.05;;;27.70;90.10;;;;;;5008180;28;20138;-71
2022/08/12 10:57:25;;;;;;;36.60;34.50;;;28.00;87.80;;;;;;5032934;28;20145;-71
2022/08/12 11:00:13;;;;;;;36.17;34.08;;;28.00;88.10;;;;;;5032796;28;20082;-69
2022/08/12 11:03:00;;;;;;;36.63;34.15;;;28.40;87.70;;;;;;5019620;28;20195;-69
2022/08/12 11:05:47;;;;;;;35.70;33.50;;;29.00;87.30;;;;;;5011269;28;20141;-70
2022/08/12 11:08:39;;;;;;;36.78;34.10;;;29.70;86.70;;;;;;5007340;28;20507;-71
2022/08/12 11:11:16;;;;;;;36.75;34.45;;;29.90;84.60;;;;;;5004347;28;20037;-70
2022/08/12 11:14:04;;;;;;;36.83;34.58;;;29.40;84.40;;;;;;5001994;28;20132;-71
2022/08/12 11:16:31;;;;;;;36.67;34.30;;;29.00;87.60;;;;;;5002281;28;20080;-70
2022/08/12 11:18:58;;;;;;;35.47;33.47;;;28.90;85.90;;;;;;5024593;28;20503;-71
2022/08/12 11:21:29;;;;;;;36.78;34.38;;;28.00;87.30;;;;;;5014021;28;20050;-70
2022/08/12 11:24:15;;;;;;;36.55;34.45;;;28.30;87.20;;;;;;5033503;28;20140;-70
2022/08/12 11:26:58;;;;;;;35.55;33.28;;;28.90;88.40;;;;;;5011745;28;20087;-69
2022/08/12 11:29:27;;;;;;;35.45;33.17;;;28.80;84.00;;;;;;5010836;28;20488;-72
2022/08/12 11:32:14;;;;;;;36.90;34.40;;;28.20;85.80;;;;;;5016447;28;20133;-72
2022/08/12 11:34:41;;;;;;;36.28;34.08;;;28.20;85.60;;;;;;4996115;28;20056;-71
2022/08/12 11:37:20;;;;;;;36.85;34.75;;;28.80;85.60;;;;;;5027235;28;20071;-69
2022/08/12 11:39:54;;;;;;;35.40;33.17;;;29.00;87.50;;;;;;5031186;28;20071;-72
2022/08/12 11:42:35;;;;;;;37.05;34.92;;;29.00;84.80;;;;;;5012708;28;20537;-69
2022/08/12 11:45:13;;;;;;;36.25;34.15;;;29.00;84.30;;;;;;5014356;28;20057;-69
2022/08/12 11:47:43;;;;;;;37.13;34.50;;;29.10;84.10;;;;;;5012460;28;20115;-71
2022/08/12 11:50:10;;;;;;;35.67;33.58;;;29.30;86.30;;;;;;5014390;28;20103;-69
2022/08/12 11:52:49;;;;;;;37.58;35.28;;;28.90;84.20;;;;;;5014366;28;20037;-70
2022/08/12 11:55:24;;;;;;;36.28;33.80;;;28.60;84.50;;;;;;5010138;28;20052;-69
2022/08/12 11:57:55;;;;;;;36.22;33.90;;;28.70;84.10;;;;;;5015599;28;20717;-69
2022/08/12 12:00:41;;;;;;;35.22;33.10;;;28.80;84.50;;;;;;5015498;28;20046;-69
2022/08/12 12:03:28;;;;;;;36.15;33.47;;;28.80;87.10;;;;;;5034899;28;20037;-68
2022/08/12 12:06:16;;;;;;;36.35;34.05;;;28.70;82.60;;;;;;5022143;28;20214;-70
2022/08/12 12:08:44;;;;;;;35.42;33.42;;;28.60;86.90;;;;;;5027508;28;20096;-72
2022/08/12 12:11:17;;;;;;;36.05;33.45;;;28.40;84.80;;;;;;5022036;28;20037;-71
2022/08/12 12:13:45;;;;;;;34.65;32.38;;;28.50;85.60;;;;;;5029876;28;20052;-70
2022/08/12 12:16:31;;;;;;;35.50;32.90;;;28.50;85.70;;;;;;5022972;28;20669;-70
2022/08/12 12:19:04;;;;;;;34.10;31.83;;;29.20;86.40;;;;;;5032282;28;20048;-71
2022/08/12 12:21:31;;;;;;;34.85;32.45;;;28.70;83.60;;;;;;5022797;28;20092;-70
2022/08/12 12:24:18;;;;;;;36.42;33.50;;;28.20;85.60;;;;;;5026473;28;20511;-70
2022/08/12 12:26:51;;;;;;;35.47;33.38;;;28.40;84.80;;;;;;5025168;28;20156;-71
2022/08/12 12:29:25;;;;;;;34.03;31.80;;;28.70;85.50;;;;;;5021811;28;20034;-72
2022/08/12 12:32:13;;;;;;;35.40;33.20;;;28.80;84.50;;;;;;5021534;28;20063;-71
2022/08/12 12:34:40;;;;;;;34.90;32.90;;;29.00;84.40;;;;;;5026151;28;20045;-71
2022/08/12 12:37:27;;;;;;;35.35;33.17;;;29.30;84.40;;;;;;5023685;28;20048;-71
2022/08/12 12:40:14;;;;;;;35.88;33.67;;;29.10;84.60;;;;;;5028114;28;20426;-70
2022/08/12 12:42:40;;;;;;;35.67;33.22;;;28.80;83.50;;;;;;5025962;28;20538;-71
2022/08/12 12:45:27;;;;;;;33.88;31.73;;;28.40;85.10;;;;;;5024925;28;20084;-70
2022/08/12 12:48:00;;;;;;;35.63;33.33;;;29.00;85.10;;;;;;5037135;28;20044;-71
2022/08/12 12:50:34;;;;;;;34.42;32.17;;;29.60;82.00;;;;;;5023265;28;20049;-71
2022/08/12 12:53:20;;;;;;;35.30;33.30;;;29.90;84.80;;;;;;5030870;28;20050;-70
2022/08/12 12:56:14;;;;;;;35.17;32.97;;;30.20;84.20;;;;;;5024634;28;20144;-70
2022/08/12 12:58:42;;;;;;;35.33;33.20;;;29.70;83.40;;;;;;5029001;28;20049;-71
2022/08/12 13:01:11;;;;;;;35.58;33.05;;;29.10;84.30;;;;;;5028660;28;20041;-71
2022/08/12 13:03:56;;;;;;;35.22;32.97;;;28.90;85.30;;;;;;5029230;28;20116;-68
2022/08/12 13:06:29;;;;;;;36.50;34.03;;;28.70;83.50;;;;;;5010596;28;20514;-69
2022/08/12 13:08:59;;;;;;;36.35;34.15;;;28.90;84.20;;;;;;5011952;28;20049;-70
2022/08/12 13:11:33;;;;;;;36.05;33.95;;;29.20;83.50;;;;;;5015773;28;20048;-71
2022/08/12 13:14:12;;;;;;;35.78;33.78;;;29.40;84.80;;;;;;5002650;28;20104;-71
2022/08/12 13:16:54;;;;;;;36.23;34.03;;;28.80;81.50;;;;;;5008860;28;20128;-71
2022/08/12 13:19:22;;;;;;;35.83;33.30;;;28.60;82.90;;;;;;5015866;28;20053;-69
2022/08/12 13:22:16;;;;;;;35.35;32.70;;;29.30;84.30;;;;;;5016430;28;20044;-71
2022/08/12 13:24:46;;;;;;;35.33;33.08;;;29.70;81.30;;;;;;5027842;28;20162;-71
2022/08/12 13:27:25;;;;;;;33.13;31.23;;;29.60;80.90;;;;;;5033681;28;20150;-72
2022/08/12 13:30:02;;;;;;;34.50;32.13;;;29.40;80.10;;;;;;5011934;28;20421;-71
2022/08/12 13:32:32;;;;;;;33.53;31.42;;;29.40;81.60;;;;;;5003049;28;20069;-72
2022/08/12 13:35:01;;;;;;;33.88;31.77;;;29.50;82.30;;;;;;5003298;28;20049;-71
2022/08/12 13:37:53;;;;;;;33.88;31.98;;;29.40;82.30;;;;;;5027302;28;20057;-71
2022/08/12 13:40:25;;;;;;;34.90;32.72;;;29.00;84.20;;;;;;5031198;28;20059;-71
2022/08/12 13:42:56;;;;;;;34.72;32.53;;;29.10;82.90;;;;;;5033603;28;20083;-70
2022/08/12 13:45:31;;;;;;;32.35;30.23;;;28.90;83.30;;;;;;5028499;28;20136;-69
2022/08/12 13:48:03;;;;;;;34.30;32.00;;;29.20;81.50;;;;;;5035105;28;20085;-69
2022/08/12 13:50:35;;;;;;;33.58;31.30;;;29.00;83.30;;;;;;5026814;28;20054;-69
2022/08/12 13:53:08;;;;;;;32.53;30.35;;;29.50;81.60;;;;;;5028086;28;20048;-71
2022/08/12 13:55:50;;;;;;;32.17;30.23;;;30.00;80.80;;;;;;5032954;28;20676;-71
2022/08/12 13:58:29;;;;;;;32.83;30.92;;;30.00;80.30;;;;;;5032481;28;20096;-71
2022/08/12 14:01:04;;;;;;;33.38;31.27;;;29.80;79.40;;;;;;5033441;28;20352;-71
2022/08/12 14:03:32;;;;;;;32.00;29.90;;;29.90;81.10;;;;;;5039320;28;20040;-70
2022/08/12 14:06:18;;;;;;;32.75;30.58;;;29.70;80.90;;;;;;5044753;28;20382;-70
2022/08/12 14:08:47;;;;;;;32.70;30.55;;;29.70;80.90;;;;;;5038758;28;20124;-72
2022/08/12 14:11:17;;;;;;;32.75;30.55;;;29.90;81.10;;;;;;5042707;28;20041;-70
2022/08/12 14:13:44;;;;;;;33.63;31.25;;;29.70;80.90;;;;;;5039094;28;20079;-70
2022/08/12 14:16:33;;;;;;;32.45;30.52;;;29.50;82.20;;;;;;5043138;28;20052;-69
2022/08/12 14:19:17;;;;;;;33.42;31.17;;;29.60;81.60;;;;;;5044911;28;20044;-69
2022/08/12 14:21:49;;;;;;;32.58;30.52;;;29.80;78.60;;;;;;5049870;28;20068;-72
2022/08/12 14:24:30;;;;;;;33.17;30.95;;;29.90;77.60;;;;;;5040126;28;20131;-69
2022/08/12 14:26:59;;;;;;;32.45;30.35;;;29.90;76.80;;;;;;5033482;28;20062;-69
2022/08/12 14:29:30;;;;;;;32.38;30.33;;;29.80;77.70;;;;;;5041851;28;20068;-71
2022/08/12 14:32:17;;;;;;;31.95;29.95;;;29.60;76.60;;;;;;5039648;28;20040;-71
2022/08/12 14:34:50;;;;;;;31.77;29.77;;;29.50;78.30;;;;;;5045699;28;20049;-72
2022/08/12 14:37:18;;;;;;;32.50;30.50;;;29.40;75.70;;;;;;5048531;28;20045;-70
2022/08/12 14:40:05;;;;;;;32.53;30.58;;;29.60;77.40;;;;;;5087697;22;20109;-70
2022/08/12 14:42:32;;;;;;;33.50;31.70;;;29.90;76.50;;;;;;5045601;28;20036;-71
2022/08/12 14:44:59;;;;;;;33.58;31.58;;;30.00;77.30;;;;;;5065139;28;20041;-69
2022/08/12 14:47:28;;;;;;;34.50;31.98;;;29.70;78.10;;;;;;5042501;28;20036;-70
2022/08/12 14:50:02;;;;;;;33.70;31.63;;;29.80;78.10;;;;;;5041203;28;20036;-71
2022/08/12 14:52:50;;;;;;;32.63;30.70;;;29.80;77.00;;;;;;5036022;28;20054;-71
2022/08/12 14:55:40;;;;;;;33.72;31.63;;;29.60;76.70;;;;;;5058373;28;20434;-71